Time;durP1;ratioP1;P1;durP2;ratioP2;P2;SDS_P1;SDS_P2;PMS_P1;PMS_P2;Temp;Humidity;BMP_temperature;BMP_pressure;BME280_temperature;BME280_humidity;BME280_pressure;Samples;Min_cycle;Max_cycle;Signal;HPM_P1;HPM_P2
2021/05/28 00:01:32;;;;;;;7.78;5.88;;;;;;;10.99;81.41;100982.22;5011407;28;20046;-81
2021/05/28 00:04:00;;;;;;;8.00;5.88;;;;;;;11.02;81.32;100979.47;5013011;28;20048;-80
2021/05/28 00:06:28;;;;;;;9.60;5.25;;;;;;;11.02;81.09;100971.50;4999824;28;20062;-81
2021/05/28 00:08:59;;;;;;;10.68;5.90;;;;;;;11.07;81.19;100982.75;5014941;28;20074;-82
2021/05/28 00:11:27;;;;;;;13.70;6.13;;;;;;;11.06;81.07;100979.25;5004539;28;20577;-80
2021/05/28 00:13:53;;;;;;;7.38;5.72;;;;;;;11.10;80.60;100974.69;5002308;28;20042;-80
2021/05/28 00:16:20;;;;;;;9.80;5.57;;;;;;;11.09;79.76;100975.63;5016006;28;20046;-81
2021/05/28 00:18:46;;;;;;;10.00;5.78;;;;;;;11.11;80.41;100984.38;5014648;28;20066;-81
2021/05/28 00:21:13;;;;;;;7.22;5.82;;;;;;;11.10;80.34;100988.81;5014878;28;20049;-80
2021/05/28 00:23:40;;;;;;;7.22;5.22;;;;;;;11.09;80.33;100994.16;5005327;28;20050;-80
2021/05/28 00:26:07;;;;;;;9.68;5.82;;;;;;;11.06;80.74;100991.63;5020750;28;20042;-79
2021/05/28 00:28:33;;;;;;;10.00;5.53;;;;;;;11.07;80.36;100993.38;5017287;28;20178;-80
2021/05/28 00:31:00;;;;;;;8.93;6.07;;;;;;;11.03;80.58;100991.75;5017147;28;20484;-80
2021/05/28 00:33:27;;;;;;;10.18;6.32;;;;;;;11.06;81.09;100994.28;4997813;28;20486;-81
2021/05/28 00:36:00;;;;;;;12.32;6.85;;;;;;;11.08;81.24;101008.34;5013406;28;20046;-81
2021/05/28 00:38:27;;;;;;;11.02;6.85;;;;;;;11.07;81.01;101006.63;5009974;28;20042;-81
2021/05/28 00:40:54;;;;;;;10.65;7.10;;;;;;;11.03;81.47;101005.88;5004283;28;20443;-79
2021/05/28 00:43:21;;;;;;;11.82;7.70;;;;;;;11.01;82.21;100998.94;5006466;28;20053;-80
2021/05/28 00:45:48;;;;;;;10.40;7.13;;;;;;;10.98;81.89;100988.44;5009349;28;20062;-80
2021/05/28 00:48:20;;;;;;;11.93;7.28;;;;;;;10.89;82.11;100981.69;5007939;28;20065;-80
2021/05/28 00:50:56;;;;;;;14.02;7.22;;;;;;;10.80;82.41;100974.13;4992795;28;20068;-81
2021/05/28 00:53:31;;;;;;;11.15;7.45;;;;;;;10.93;83.01;100987.75;5009470;28;20156;-80
2021/05/28 00:56:00;;;;;;;10.13;7.53;;;;;;;10.86;82.92;100982.69;4997578;28;20050;-81
2021/05/28 00:58:32;;;;;;;12.02;7.30;;;;;;;10.74;82.61;100967.25;5003007;28;20046;-81
2021/05/28 01:01:04;;;;;;;10.02;7.95;;;;;;;10.73;82.72;100965.53;5020192;28;20074;-81
2021/05/28 01:03:31;;;;;;;12.27;7.82;;;;;;;10.91;83.12;100998.41;5022862;28;20073;-80
2021/05/28 01:05:58;;;;;;;10.40;7.78;;;;;;;10.86;83.99;100985.31;5004117;28;20050;-81
2021/05/28 01:08:25;;;;;;;11.85;7.70;;;;;;;10.86;83.99;100987.97;5011860;28;20054;-80
2021/05/28 01:10:55;;;;;;;10.70;8.00;;;;;;;10.95;83.59;101000.03;4994446;28;20054;-81
2021/05/28 01:13:21;;;;;;;9.63;7.43;;;;;;;10.94;84.24;100997.44;4992696;28;20065;-80
2021/05/28 01:15:49;;;;;;;12.15;7.80;;;;;;;10.94;84.04;100997.44;4994967;28;20492;-81
2021/05/28 01:18:17;;;;;;;10.32;7.50;;;;;;;10.94;84.08;100998.28;5009062;28;20046;-81
2021/05/28 01:20:45;;;;;;;11.15;7.60;;;;;;;10.95;84.33;100999.16;4996299;28;20416;-80
2021/05/28 01:23:11;;;;;;;11.63;8.10;;;;;;;10.92;84.00;101001.91;4996941;28;20504;-80
2021/05/28 01:25:39;;;;;;;11.40;8.57;;;;;;;10.98;83.53;101004.34;4993162;28;20046;-80
2021/05/28 01:28:05;;;;;;;12.10;8.82;;;;;;;10.97;83.62;101006.13;4997708;28;20054;-80
2021/05/28 01:30:33;;;;;;;13.25;8.50;;;;;;;10.98;84.10;101013.16;4996606;28;20056;-79
2021/05/28 01:32:59;;;;;;;12.30;8.25;;;;;;;10.96;83.67;101012.34;5021029;28;20077;-80
2021/05/28 01:35:27;;;;;;;9.85;7.35;;;;;;;10.95;83.21;101001.81;5021020;28;20061;-80
2021/05/28 01:37:57;;;;;;;11.00;8.00;;;;;;;10.93;83.38;101008.94;5008950;28;20061;-81
2021/05/28 01:40:24;;;;;;;10.88;8.27;;;;;;;10.92;83.59;101010.72;5014119;28;20054;-81
2021/05/28 01:42:51;;;;;;;10.27;8.52;;;;;;;10.86;83.03;101003.88;5005628;28;20053;-81
2021/05/28 01:45:18;;;;;;;14.10;8.55;;;;;;;10.82;83.07;101004.94;5013261;28;20474;-81
2021/05/28 01:47:46;;;;;;;12.65;8.45;;;;;;;10.83;83.53;101004.00;4993758;28;20145;-80
2021/05/28 01:50:13;;;;;;;13.82;8.43;;;;;;;10.84;83.83;101008.38;5018534;28;20073;-81
2021/05/28 01:52:40;;;;;;;11.35;8.45;;;;;;;10.79;83.45;101005.03;5009446;28;20054;-80
2021/05/28 01:55:12;;;;;;;12.88;8.23;;;;;;;10.78;84.32;101003.31;5010049;28;20058;-80
2021/05/28 01:57:40;;;;;;;13.23;9.10;;;;;;;10.73;84.34;101002.63;5009380;28;20037;-80
2021/05/28 02:00:10;;;;;;;12.65;9.23;;;;;;;10.73;84.76;100992.03;4987689;28;20997;-81
2021/05/28 02:02:38;;;;;;;11.70;9.05;;;;;;;10.74;84.70;100991.09;5007820;28;20057;-81
2021/05/28 02:05:08;;;;;;;13.15;9.13;;;;;;;10.79;85.14;101001.53;5010132;28;20053;-81
2021/05/28 02:07:35;;;;;;;12.93;10.02;;;;;;;10.79;85.04;100997.09;4987930;28;20096;-81
2021/05/28 02:10:06;;;;;;;13.13;10.13;;;;;;;10.79;84.94;100997.09;5006478;28;20114;-81
2021/05/28 02:12:33;;;;;;;14.27;11.02;;;;;;;10.79;84.69;101002.41;4989778;28;20143;-81
2021/05/28 02:15:02;;;;;;;15.02;10.77;;;;;;;10.81;84.65;101000.56;5014013;28;20054;-81
2021/05/28 02:17:29;;;;;;;14.10;9.65;;;;;;;10.80;84.74;101009.41;5013785;28;20053;-82
2021/05/28 02:19:58;;;;;;;15.75;10.13;;;;;;;10.84;84.78;100999.56;5008924;28;20448;-81
2021/05/28 02:22:25;;;;;;;16.55;11.07;;;;;;;10.88;84.68;101009.97;4995304;28;20058;-81
2021/05/28 02:24:52;;;;;;;16.77;10.55;;;;;;;10.91;84.14;101011.66;5009931;28;20172;-81
2021/05/28 02:27:19;;;;;;;16.10;11.25;;;;;;;10.94;83.56;101011.53;5008541;28;20350;-81
2021/05/28 02:29:49;;;;;;;17.23;12.05;;;;;;;10.93;83.66;101015.09;4996736;28;20113;-81
2021/05/28 02:32:16;;;;;;;20.88;11.98;;;;;;;10.87;83.52;101013.53;5008150;28;20060;-81
2021/05/28 02:34:43;;;;;;;20.15;12.40;;;;;;;10.85;83.93;101020.72;4992618;28;20064;-81
2021/05/28 02:37:09;;;;;;;15.15;11.77;;;;;;;10.82;84.06;101017.31;5008235;28;20046;-81
2021/05/28 02:39:36;;;;;;;20.58;12.13;;;;;;;10.82;84.30;101015.53;5008132;28;20042;-81
2021/05/28 02:42:04;;;;;;;20.63;12.57;;;;;;;10.84;84.36;101020.78;5004045;28;20050;-81
2021/05/28 02:44:30;;;;;;;16.33;11.65;;;;;;;10.86;84.35;101019.75;5007568;28;20061;-81
2021/05/28 02:46:57;;;;;;;17.23;12.50;;;;;;;10.83;84.44;101019.03;4994542;28;20163;-81
2021/05/28 02:49:24;;;;;;;17.77;12.63;;;;;;;10.78;83.95;101015.69;5006219;28;20045;-81
2021/05/28 02:51:51;;;;;;;17.70;12.75;;;;;;;10.76;84.23;101022.84;5005354;28;20050;-81
2021/05/28 02:54:17;;;;;;;16.15;12.07;;;;;;;10.78;84.71;101021.00;4994952;28;20528;-81
2021/05/28 02:56:44;;;;;;;18.50;12.13;;;;;;;10.74;84.97;101022.88;4992359;28;20054;-82
2021/05/28 02:59:11;;;;;;;16.13;11.52;;;;;;;10.78;85.09;101031.59;4994987;28;20049;-81
2021/05/28 03:01:38;;;;;;;18.38;12.68;;;;;;;10.80;85.34;101040.34;5008012;28;20120;-81
2021/05/28 03:04:05;;;;;;;18.30;12.52;;;;;;;10.80;84.84;101033.25;4988984;28;20113;-81
2021/05/28 03:06:32;;;;;;;18.85;12.00;;;;;;;10.80;84.41;101035.91;4994062;28;20064;-81
2021/05/28 03:08:58;;;;;;;18.65;12.30;;;;;;;10.83;84.68;101040.25;5009579;28;20050;-81
2021/05/28 03:11:26;;;;;;;18.63;11.82;;;;;;;10.83;84.65;101038.44;5000737;28;20061;-80
2021/05/28 03:13:52;;;;;;;17.35;12.85;;;;;;;10.82;84.77;101043.81;5014685;28;20045;-79
2021/05/28 03:16:20;;;;;;;18.70;13.05;;;;;;;10.80;84.66;101043.00;5002017;28;20056;-80
2021/05/28 03:18:50;;;;;;;24.38;13.98;;;;;;;10.77;84.91;101038.66;5019168;28;20046;-79
2021/05/28 03:23:49;;;;;;;15.55;11.68;;;;;;;10.74;85.47;101046.72;5019347;28;20046;-80
2021/05/28 03:26:16;;;;;;;16.42;10.82;;;;;;;10.71;85.78;101043.31;5009122;28;20474;-81
2021/05/28 03:28:43;;;;;;;16.02;11.57;;;;;;;10.69;86.05;101043.41;4990772;28;20054;-80
2021/05/28 03:31:09;;;;;;;17.48;12.02;;;;;;;10.73;86.03;101042.34;5010138;28;20399;-81
2021/05/28 03:33:36;;;;;;;15.43;11.60;;;;;;;10.77;86.76;101051.91;4992673;28;20060;-81
2021/05/28 03:36:05;;;;;;;16.35;12.05;;;;;;;10.78;87.11;101052.78;4995463;28;20060;-80
2021/05/28 03:38:32;;;;;;;19.20;11.60;;;;;;;10.74;86.43;101052.03;5002757;28;20054;-82
2021/05/28 03:40:58;;;;;;;17.42;12.15;;;;;;;10.73;86.64;101047.66;4994137;28;20078;-81
2021/05/28 03:43:25;;;;;;;16.73;12.35;;;;;;;10.72;86.71;101059.16;5000017;28;20073;-81
2021/05/28 03:45:52;;;;;;;17.10;12.20;;;;;;;10.70;86.84;101060.16;5012387;28;20064;-81
2021/05/28 03:48:19;;;;;;;13.93;11.30;;;;;;;10.69;86.73;101055.78;5015832;28;20062;-82
2021/05/28 03:50:46;;;;;;;16.35;12.00;;;;;;;10.65;87.02;101049.72;5017451;28;20042;-80
2021/05/28 03:53:14;;;;;;;17.58;11.68;;;;;;;10.68;86.88;101052.28;5008011;28;20084;-82
2021/05/28 03:55:41;;;;;;;16.60;11.43;;;;;;;10.69;86.87;101053.13;5007415;28;20113;-80
2021/05/28 03:58:07;;;;;;;18.05;11.43;;;;;;;10.72;86.62;101053.00;4999069;28;20144;-80
2021/05/28 04:00:34;;;;;;;16.17;11.38;;;;;;;10.73;86.13;101046.78;5020289;28;20132;-81
2021/05/28 04:03:01;;;;;;;17.02;12.00;;;;;;;10.79;85.72;101050.09;5015216;28;20145;-81
2021/05/28 04:05:29;;;;;;;15.25;10.77;;;;;;;10.83;84.72;101046.41;5007645;28;20030;-80
2021/05/28 04:07:56;;;;;;;16.95;11.45;;;;;;;10.84;84.26;101041.97;5025999;28;20098;-81
2021/05/28 04:10:23;;;;;;;16.13;11.13;;;;;;;10.87;84.21;101042.69;5004571;28;20500;-81
2021/05/28 04:12:53;;;;;;;19.05;12.02;;;;;;;10.94;84.65;101043.34;5018129;28;20052;-80
2021/05/28 04:15:19;;;;;;;17.65;11.90;;;;;;;10.97;84.43;101051.19;5015675;28;20060;-81
2021/05/28 04:17:46;;;;;;;13.27;11.18;;;;;;;11.00;84.26;101044.91;5007545;28;20098;-79
2021/05/28 04:20:13;;;;;;;16.25;11.20;;;;;;;11.02;84.77;101049.19;5009739;28;20054;-81
2021/05/28 04:22:40;;;;;;;14.48;10.32;;;;;;;11.10;84.44;101059.50;4986134;28;20065;-81
2021/05/28 04:25:08;;;;;;;14.70;11.25;;;;;;;11.13;84.11;101060.28;4992635;28;20049;-82
2021/05/28 04:27:35;;;;;;;15.82;10.43;;;;;;;11.18;83.63;101068.88;5003712;28;20058;-81
2021/05/28 04:30:02;;;;;;;14.60;11.27;;;;;;;11.23;83.56;101058.97;5008907;28;20046;-81
2021/05/28 04:32:29;;;;;;;15.85;11.38;;;;;;;11.24;83.45;101067.78;5006659;28;20053;-81
2021/05/28 04:34:55;;;;;;;14.10;10.90;;;;;;;11.33;83.46;101067.44;5008068;28;20493;-81
2021/05/28 04:37:22;;;;;;;14.27;10.15;;;;;;;11.40;82.72;101068.06;4996184;28;20085;-81
2021/05/28 04:39:49;;;;;;;16.05;10.27;;;;;;;11.43;82.44;101066.16;5008666;28;20045;-81
2021/05/28 04:42:15;;;;;;;14.98;10.52;;;;;;;11.48;80.98;101087.19;4991245;28;20706;-81
2021/05/28 04:44:42;;;;;;;14.43;9.98;;;;;;;11.44;80.95;101083.78;5008279;28;20072;-80
2021/05/28 04:47:09;;;;;;;13.43;9.70;;;;;;;11.48;81.54;101080.09;4993117;28;20050;-80
2021/05/28 04:49:35;;;;;;;15.43;10.48;;;;;;;11.52;81.75;101079.03;5010658;28;20106;-81
2021/05/28 04:52:02;;;;;;;13.50;10.32;;;;;;;11.62;81.52;101091.94;5012341;28;20052;-80
2021/05/28 04:54:29;;;;;;;12.38;9.85;;;;;;;11.65;80.89;101086.53;5006370;28;20110;-81
2021/05/28 04:56:55;;;;;;;15.13;10.57;;;;;;;11.63;80.29;101080.41;5022298;28;20050;-80
2021/05/28 04:59:22;;;;;;;12.20;9.68;;;;;;;11.65;79.38;101086.53;5025614;28;20073;-79
2021/05/28 05:01:48;;;;;;;12.77;10.18;;;;;;;11.71;79.08;101096.88;5018278;28;20049;-79
2021/05/28 05:04:15;;;;;;;13.45;10.57;;;;;;;11.69;79.29;101088.09;4995074;28;20042;-79
2021/05/28 05:06:42;;;;;;;16.30;10.48;;;;;;;11.76;78.99;101089.63;5013832;28;20918;-79
2021/05/28 05:09:08;;;;;;;12.93;9.75;;;;;;;11.81;78.84;101100.91;4993246;28;20125;-80
2021/05/28 05:11:35;;;;;;;17.35;10.90;;;;;;;11.86;78.84;101104.25;5011113;28;20061;-82
2021/05/28 05:14:02;;;;;;;15.93;10.90;;;;;;;11.86;78.47;101109.53;5011785;28;20046;-81
2021/05/28 05:16:28;;;;;;;14.02;10.02;;;;;;;11.85;78.46;101108.69;4993827;28;20101;-81
2021/05/28 05:19:09;;;;;;;13.55;9.95;;;;;;;11.84;78.57;101114.03;5012829;28;20074;-81
2021/05/28 05:21:36;;;;;;;14.73;10.65;;;;;;;11.84;77.83;101116.69;5013321;28;20042;-81
2021/05/28 05:24:03;;;;;;;14.30;10.13;;;;;;;11.90;78.76;101119.97;5004206;28;20054;-80
2021/05/28 05:26:31;;;;;;;13.38;10.40;;;;;;;12.02;78.76;101118.59;5016864;28;20030;-81
2021/05/28 05:28:57;;;;;;;15.60;10.13;;;;;;;12.11;78.80;101115.59;5004688;28;20054;-81
2021/05/28 05:31:25;;;;;;;12.57;10.27;;;;;;;12.17;77.05;101123.28;5017373;28;20046;-80
2021/05/28 05:33:53;;;;;;;14.57;10.05;;;;;;;12.18;77.00;101117.03;5012830;28;20104;-80
2021/05/28 05:36:20;;;;;;;13.95;9.52;;;;;;;12.27;77.00;101121.97;4992611;28;20476;-80
2021/05/28 05:38:47;;;;;;;12.35;9.35;;;;;;;12.34;76.76;101108.41;5007776;28;20060;-80
2021/05/28 05:41:13;;;;;;;12.27;8.63;;;;;;;12.50;75.53;101123.63;4993012;28;20056;-81
2021/05/28 05:43:40;;;;;;;10.38;8.10;;;;;;;12.60;75.09;101121.44;4995130;28;20050;-79
2021/05/28 05:46:07;;;;;;;12.13;8.32;;;;;;;12.68;74.96;101115.78;4996703;28;20050;-80
2021/05/28 05:48:34;;;;;;;10.48;7.97;;;;;;;12.77;74.47;101124.22;4996632;28;20056;-80
2021/05/28 05:51:00;;;;;;;13.32;8.18;;;;;;;12.90;73.95;101121.88;5016209;28;20048;-79
2021/05/28 05:53:27;;;;;;;9.85;7.50;;;;;;;13.05;73.32;101126.50;5003206;28;20050;-79
2021/05/28 05:55:54;;;;;;;12.25;7.55;;;;;;;13.12;72.28;101130.59;5020364;28;20046;-80
2021/05/28 05:58:20;;;;;;;9.80;7.00;;;;;;;13.14;71.87;101128.75;5012707;28;20089;-80
2021/05/28 06:00:47;;;;;;;9.15;7.22;;;;;;;13.23;72.03;101133.66;5013829;28;20060;-80
2021/05/28 06:03:15;;;;;;;11.00;6.68;;;;;;;13.20;70.83;101133.81;5012205;28;20053;-80
2021/05/28 06:05:42;;;;;;;11.90;7.40;;;;;;;13.27;70.90;101143.22;5015961;28;20058;-79
2021/05/28 06:08:08;;;;;;;11.68;7.18;;;;;;;13.27;71.00;101137.03;5020572;28;20049;-79
2021/05/28 06:10:36;;;;;;;9.90;6.82;;;;;;;13.38;70.68;101134.72;5001363;28;20060;-79
2021/05/28 06:13:07;;;;;;;10.68;6.38;;;;;;;13.38;68.95;101142.72;5000460;28;20060;-81
2021/05/28 06:15:35;;;;;;;12.95;7.20;;;;;;;13.40;69.82;101143.50;5006540;28;20117;-79
2021/05/28 06:18:04;;;;;;;;;;;;;;;13.54;68.64;101146.38;5011806;28;20053;-79
2021/05/28 06:20:30;;;;;;;10.48;6.03;;;;;;;13.68;69.18;101151.94;5005006;28;19932;-80
2021/05/28 06:22:57;;;;;;;13.05;6.63;;;;;;;13.85;68.62;101151.09;5015096;28;20042;-79
2021/05/28 06:25:24;;;;;;;9.93;6.25;;;;;;;14.12;67.27;101156.91;5000284;28;20085;-79
2021/05/28 06:27:51;;;;;;;8.13;5.85;;;;;;;14.57;67.15;101155.53;5016114;28;20049;-79
2021/05/28 06:30:18;;;;;;;6.85;5.75;;;;;;;14.83;65.62;101147.03;5015419;28;20050;-81
2021/05/28 06:32:45;;;;;;;7.28;5.93;;;;;;;14.91;65.26;101152.00;5004971;28;20045;-81
2021/05/28 06:35:11;;;;;;;9.63;6.07;;;;;;;15.15;64.67;101153.34;5018600;28;20048;-81
2021/05/28 06:37:40;;;;;;;9.32;5.78;;;;;;;16.00;63.11;101153.06;5008076;28;20048;-81
2021/05/28 06:40:10;;;;;;;6.40;5.10;;;;;;;16.84;58.86;101155.16;5019185;28;20077;-81
2021/05/28 06:42:37;;;;;;;9.48;5.30;;;;;;;18.29;54.93;101150.38;4998220;28;20054;-81
2021/05/28 06:45:05;;;;;;;7.57;5.15;;;;;;;19.54;50.76;101154.13;5014293;28;20052;-80
2021/05/28 06:47:32;;;;;;;7.15;5.20;;;;;;;19.48;49.73;101159.09;5009932;28;20050;-80
2021/05/28 06:49:59;;;;;;;8.07;4.38;;;;;;;19.86;49.02;101162.53;5011301;28;20068;-80
2021/05/28 06:52:26;;;;;;;7.88;4.40;;;;;;;20.85;46.94;101156.88;4992900;28;20068;-80
2021/05/28 06:54:52;;;;;;;10.77;4.50;;;;;;;21.54;43.88;101137.00;5007591;28;20069;-80
2021/05/28 06:57:20;;;;;;;8.88;4.63;;;;;;;21.61;44.63;101154.34;5011014;28;20220;-80
2021/05/28 06:59:47;;;;;;;5.38;3.70;;;;;;;21.86;42.93;101164.00;5012934;28;20046;-80
2021/05/28 07:02:13;;;;;;;7.82;4.30;;;;;;;22.17;42.18;101156.13;5016161;28;20054;-80
2021/05/28 07:04:40;;;;;;;7.85;4.03;;;;;;;22.71;41.90;101162.22;4999338;28;20046;-82
2021/05/28 07:07:07;;;;;;;7.50;3.60;;;;;;;22.80;39.60;101166.03;5012511;28;20053;-80
2021/05/28 07:09:34;;;;;;;5.85;3.60;;;;;;;22.56;39.70;101160.84;5016155;28;20157;-81
2021/05/28 07:12:01;;;;;;;6.10;3.20;;;;;;;22.43;41.26;101170.09;5018519;28;20052;-82
2021/05/28 07:14:29;;;;;;;5.20;2.60;;;;;;;22.66;38.29;101177.97;5021055;28;20089;-81
2021/05/28 07:16:57;;;;;;;3.53;2.60;;;;;;;23.88;37.59;101166.41;5000486;28;20069;-84
2021/05/28 07:19:23;;;;;;;3.95;2.40;;;;;;;24.40;35.29;101170.59;5033109;28;20146;-82
2021/05/28 07:21:50;;;;;;;2.58;1.98;;;;;;;23.91;36.85;101175.09;5006740;28;20050;-82
2021/05/28 07:24:18;;;;;;;5.93;2.13;;;;;;;22.71;39.17;101181.13;5015589;28;20081;-82
2021/05/28 07:26:47;;;;;;;5.95;2.70;;;;;;;21.79;40.98;101178.97;5015498;28;20172;-84
2021/05/28 07:29:14;;;;;;;5.82;2.30;;;;;;;22.25;39.84;101177.91;5001633;28;20066;-83
2021/05/28 07:31:44;;;;;;;3.50;2.17;;;;;;;21.69;42.26;101180.72;5005314;28;20061;-79
2021/05/28 07:34:13;;;;;;;3.05;2.33;;;;;;;22.09;40.90;101180.16;5011150;28;20088;-81
2021/05/28 07:36:40;;;;;;;3.95;1.75;;;;;;;22.69;37.58;101184.94;5011869;28;20046;-81
2021/05/28 07:39:07;;;;;;;4.15;1.70;;;;;;;21.77;38.30;101186.31;4999778;28;20054;-81
2021/05/28 07:41:36;;;;;;;6.85;1.70;;;;;;;20.46;41.24;101185.03;5013743;28;20045;-79
2021/05/28 07:44:05;;;;;;;3.70;2.00;;;;;;;19.59;42.90;101194.97;4996864;28;20110;-79
2021/05/28 07:46:40;;;;;;;4.45;1.88;;;;;;;19.34;46.01;101178.88;5010071;28;20078;-79
2021/05/28 07:49:07;;;;;;;6.88;2.17;;;;;;;18.68;44.94;101196.00;5005670;28;20073;-78
2021/05/28 07:51:34;;;;;;;3.97;2.00;;;;;;;18.86;45.54;101185.84;5005693;28;20071;-80
2021/05/28 07:54:00;;;;;;;5.63;2.20;;;;;;;19.12;44.13;101187.56;5008946;28;20156;-81
2021/05/28 07:56:27;;;;;;;3.78;1.90;;;;;;;19.73;43.83;101188.59;5006381;28;20046;-81
2021/05/28 07:58:54;;;;;;;3.25;1.92;;;;;;;19.64;44.23;101186.59;4987799;28;20512;-80
2021/05/28 08:01:21;;;;;;;3.63;2.00;;;;;;;19.99;41.34;101185.84;4995480;28;20068;-80
2021/05/28 08:03:48;;;;;;;3.95;1.85;;;;;;;21.08;39.63;101184.72;5005616;28;20052;-80
2021/05/28 08:06:15;;;;;;;3.72;2.05;;;;;;;21.46;38.82;101181.69;5013779;28;20050;-80
2021/05/28 08:08:42;;;;;;;3.83;1.58;;;;;;;22.18;37.75;101179.41;5015448;28;21654;-81
2021/05/28 08:11:11;;;;;;;3.00;1.50;;;;;;;22.69;36.23;101185.78;5020913;28;20109;-83
2021/05/28 08:13:38;;;;;;;2.83;1.58;;;;;;;22.00;36.94;101181.78;5020317;28;20049;-80
2021/05/28 08:16:04;;;;;;;3.45;1.60;;;;;;;20.57;40.76;101172.47;4990249;28;20042;-81
2021/05/28 08:18:32;;;;;;;2.38;1.58;;;;;;;19.76;41.63;101174.94;5006873;28;20109;-80
2021/05/28 08:20:59;;;;;;;2.40;1.25;;;;;;;18.98;42.69;101176.94;5009450;28;20045;-82
2021/05/28 08:23:26;;;;;;;1.58;1.48;;;;;;;18.65;44.21;101171.22;4989453;28;20084;-82
2021/05/28 08:25:53;;;;;;;2.25;1.23;;;;;;;19.13;44.83;101170.50;4990215;28;20054;-82
2021/05/28 08:28:20;;;;;;;4.15;1.80;;;;;;;19.88;43.28;101162.44;5008458;28;20050;-79
2021/05/28 08:30:48;;;;;;;3.53;1.40;;;;;;;20.18;41.94;101170.03;5016357;28;20054;-80
2021/05/28 08:33:15;;;;;;;4.97;1.77;;;;;;;20.17;41.71;101171.88;5018290;28;20046;-80
2021/05/28 08:35:43;;;;;;;4.78;1.65;;;;;;;19.44;42.96;101168.31;5006098;28;20054;-79
2021/05/28 08:38:11;;;;;;;3.90;1.80;;;;;;;19.64;42.80;101169.63;5009348;28;20037;-79
2021/05/28 08:40:39;;;;;;;4.55;2.00;;;;;;;19.51;42.96;101175.88;5004316;28;20062;-78
2021/05/28 08:43:06;;;;;;;3.88;1.88;;;;;;;18.81;44.07;101172.75;5019310;28;20054;-79
2021/05/28 08:45:38;;;;;;;4.10;2.00;;;;;;;18.28;45.69;101170.97;4983958;28;20056;-81
2021/05/28 08:48:07;;;;;;;2.75;1.77;;;;;;;18.05;47.69;101169.84;5010184;28;20050;-84
2021/05/28 08:50:34;;;;;;;4.85;2.20;;;;;;;18.06;47.31;101173.38;5013590;28;20027;-83
2021/05/28 08:53:06;;;;;;;3.55;1.95;;;;;;;18.32;48.18;101172.50;5023481;28;20154;-84
2021/05/28 08:55:34;;;;;;;5.65;2.25;;;;;;;18.65;46.22;101171.22;5031443;28;20132;-80
2021/05/28 08:58:10;;;;;;;4.30;2.10;;;;;;;18.81;45.25;101163.84;4994027;28;20050;-81
2021/05/28 09:00:39;;;;;;;5.28;2.00;;;;;;;18.79;46.13;101173.81;5017087;28;20057;-83
2021/05/28 09:03:16;;;;;;;2.88;2.10;;;;;;;18.19;46.81;101176.97;5001106;28;20145;-84
2021/05/28 09:05:43;;;;;;;6.30;2.47;;;;;;;17.65;48.89;101165.31;5012609;28;20046;-83
2021/05/28 09:08:10;;;;;;;3.22;1.80;;;;;;;17.30;47.44;101157.72;4998737;28;20128;-83
2021/05/28 09:10:39;;;;;;;3.50;1.60;;;;;;;17.51;48.39;101168.84;5010173;28;20060;-80
2021/05/28 09:13:19;;;;;;;4.07;1.58;;;;;;;17.73;47.44;101171.94;5027551;28;20033;-80
2021/05/28 09:15:50;;;;;;;3.50;1.80;;;;;;;17.72;45.84;101153.28;5001530;28;20084;-81
2021/05/28 09:18:17;;;;;;;1.60;1.50;;;;;;;17.42;46.66;101164.09;5016375;28;20057;-83
2021/05/28 09:20:53;;;;;;;4.28;2.25;;;;;;;17.29;47.17;101163.16;4999243;28;20392;-83
2021/05/28 09:23:23;;;;;;;4.53;1.60;;;;;;;17.16;46.40;101169.25;5019150;28;20073;-81
2021/05/28 09:26:05;;;;;;;2.72;1.50;;;;;;;16.88;47.49;101152.31;5007212;28;20038;-85
2021/05/28 09:28:37;;;;;;;2.58;1.50;;;;;;;17.13;48.80;101164.09;5012360;28;20113;-84
2021/05/28 09:31:13;;;;;;;8.00;1.95;;;;;;;17.05;48.56;101165.53;5004587;28;20058;-83
2021/05/28 09:33:57;;;;;;;3.55;1.80;;;;;;;16.92;49.79;101173.44;5006141;28;20042;-83
2021/05/28 09:36:27;;;;;;;6.45;2.28;;;;;;;16.69;50.97;101180.16;5001541;28;20049;-83
2021/05/28 09:38:59;;;;;;;4.53;2.45;;;;;;;16.38;51.50;101172.22;4971159;28;20084;-82
2021/05/28 09:41:57;;;;;;;6.47;2.20;;;;;;;16.37;50.71;101168.69;5016684;28;20057;-85
2021/05/28 09:44:31;;;;;;;2.50;1.42;;;;;;;16.62;48.38;101159.22;5004743;28;20516;-84
2021/05/28 09:47:06;;;;;;;5.63;1.90;;;;;;;16.85;49.03;101166.72;5004391;28;20049;-82
2021/05/28 09:49:37;;;;;;;3.45;1.80;;;;;;;17.06;47.78;101160.06;5020924;28;20041;-81
2021/05/28 09:52:12;;;;;;;1.88;1.38;;;;;;;17.09;48.75;101162.56;5025594;28;20038;-82
2021/05/28 09:54:52;;;;;;;2.08;1.50;;;;;;;17.18;48.10;101164.66;5029789;28;20087;-82
2021/05/28 09:57:40;;;;;;;2.53;1.55;;;;;;;17.23;45.64;101166.19;5028466;28;20158;-82
2021/05/28 10:00:25;;;;;;;1.27;0.85;;;;;;;17.04;43.48;101161.13;5006238;28;20062;-84
2021/05/28 10:03:29;;;;;;;1.48;1.00;;;;;;;17.00;42.67;101160.44;5006002;28;20108;-83
2021/05/28 10:05:58;;;;;;;2.78;1.00;;;;;;;16.79;42.68;101154.59;4951750;29;20048;-84
2021/05/28 10:08:27;;;;;;;1.30;1.00;;;;;;;16.69;44.20;101160.59;5017100;28;20101;-81
2021/05/28 10:10:56;;;;;;;2.38;1.17;;;;;;;16.95;45.14;101146.50;5005410;28;20053;-81
2021/05/28 10:13:27;;;;;;;3.35;1.30;;;;;;;17.34;44.97;101153.00;5027791;28;20054;-80
2021/05/28 10:15:56;;;;;;;4.80;1.33;;;;;;;17.26;42.38;101153.50;5030958;28;20109;-84
2021/05/28 10:18:24;;;;;;;2.47;0.85;;;;;;;17.11;42.93;101146.41;5032202;28;20073;-84
2021/05/28 10:20:53;;;;;;;1.17;0.75;;;;;;;17.16;41.81;101141.63;5015323;28;20053;-83
2021/05/28 10:23:23;;;;;;;1.35;0.85;;;;;;;17.30;43.09;101149.69;5015896;28;20070;-82
2021/05/28 10:25:55;;;;;;;2.00;1.20;;;;;;;17.60;43.11;101146.88;5032712;28;20050;-80
2021/05/28 10:28:31;;;;;;;1.83;0.60;;;;;;;17.77;40.91;101135.94;5030699;28;20049;-82
2021/05/28 10:30:58;;;;;;;0.82;0.80;;;;;;;17.95;39.59;101138.34;5016025;28;20056;-82
2021/05/28 10:33:26;;;;;;;2.28;0.77;;;;;;;17.82;40.69;101133.81;5022789;28;20056;-84
2021/05/28 10:35:59;;;;;;;2.08;0.85;;;;;;;17.76;42.45;101144.94;5014709;28;20068;-82
2021/05/28 10:38:29;;;;;;;1.20;0.70;;;;;;;17.82;40.84;101146.34;5033298;28;20081;-83
2021/05/28 10:41:07;;;;;;;1.10;0.70;;;;;;;17.86;39.94;101139.84;5024653;28;20108;-82
2021/05/28 10:43:57;;;;;;;0.90;0.80;;;;;;;17.71;41.23;101144.38;5013992;28;20437;-79
2021/05/28 10:46:24;;;;;;;3.17;1.10;;;;;;;17.64;41.91;101142.19;5010277;28;20045;-79
2021/05/28 10:48:56;;;;;;;2.70;0.95;;;;;;;17.59;42.30;101142.47;5020379;28;20054;-80
2021/05/28 10:51:25;;;;;;;1.77;0.95;;;;;;;17.73;42.51;101142.47;5028449;28;20046;-81
2021/05/28 10:53:53;;;;;;;1.70;0.77;;;;;;;17.82;40.67;101141.00;5007632;28;20042;-81
2021/05/28 10:56:28;;;;;;;1.05;0.80;;;;;;;18.08;40.87;101134.78;5023436;28;20077;-82
2021/05/28 10:59:01;;;;;;;1.48;1.00;;;;;;;18.36;40.97;101133.78;5015797;28;20045;-81
2021/05/28 11:01:31;;;;;;;2.33;0.90;;;;;;;18.36;40.78;101131.13;5018858;28;20117;-79
2021/05/28 11:04:17;;;;;;;1.77;0.90;;;;;;;18.25;41.32;101127.44;5005005;28;20054;-80
2021/05/28 11:06:56;;;;;;;1.25;0.90;;;;;;;18.17;41.75;101130.63;5020156;28;20080;-80
2021/05/28 11:09:47;;;;;;;1.00;0.90;;;;;;;18.08;42.91;101131.25;5014956;28;20053;-80
2021/05/28 11:12:37;;;;;;;0.85;0.85;;;;;;;18.05;43.66;101135.00;5019717;28;20073;-79
2021/05/28 11:15:05;;;;;;;;;;;;;;;18.16;42.73;101124.41;4996210;28;20049;-82
2021/05/28 11:17:31;;;;;;;1.45;1.10;;;;;;;18.07;44.03;101129.53;5018119;28;19925;-81
2021/05/28 11:20:06;;;;;;;2.55;1.20;;;;;;;18.11;43.65;101117.63;5022978;28;20058;-82
2021/05/28 11:22:38;;;;;;;1.85;1.00;;;;;;;18.01;43.21;101127.25;5012767;28;20108;-81
2021/05/28 11:25:17;;;;;;;2.78;1.20;;;;;;;17.68;43.61;101131.19;5001942;28;20121;-82
2021/05/28 11:27:55;;;;;;;2.80;1.60;;;;;;;17.52;45.65;101128.59;5006197;28;20038;-81
2021/05/28 11:30:24;;;;;;;1.27;0.90;;;;;;;17.61;45.71;101121.81;5016695;28;20486;-81